Last 24 Hours

OV-Red Dog 6200'

Hourly Data | America/Los_Angeles
as of 6/27/22 4:11 PM PDT
Date & Time Temp (°F) RH (%) Dew Pt (°F) Wet Bulb (°F) Wind Dir (°) Wind Spd (mph) Wind Gust (mph) Latest Rain (In) New Snow (in) SnowDepth (in) Daily Min Temp (°F) Daily Max Temp (°F) Daily Rain (In)
6/27/22 - 1600 77.8 20 34.2 53.5 N | 8 10.1 19.2 0.00 - 270.6 44.2 80.6 0.00
6/27/22 - 1500 79.1 17 30.4 52.8 N | 5 8.2 16.2 0.00 - 277.7 44.2 80.6 0.00
6/27/22 - 1400 79.5 22 36.8 54.8 N | 4 9.0 18.2 0.00 - 277.3 44.2 79.7 0.00
6/27/22 - 1300 78.3 18 31.8 52.9 NNE | 14 9.4 16.6 0.00 - 288.9 44.2 79.6 0.00
6/27/22 - 1200 78.3 20 33.5 53.5 N | 11 6.8 18.6 0.00 98.1 294.9 44.2 79.4 0.00
6/27/22 - 1100 77.2 24 37.7 54.6 N | 3 6.6 17.6 0.00 97.0 302.6 44.2 78.5 0.00
6/27/22 - 1000 76.8 20 33.0 52.9 SE | 143 3.3 11.6 0.00 85.0 310.8 44.2 77.3 0.00
6/27/22 - 0900 67.4 42 43.7 54.1 S | 174 1.2 4.7 0.00 78.9 305.8 44.2 67.9 0.00
6/27/22 - 0800 61.4 42 37.8 49.4 SSE | 167 0.7 3.0 0.00 88.2 266.8 44.2 61.4 0.00
6/27/22 - 0700 53.2 57 38.6 46.2 NNE | 17 0.7 2.7 0.00 78.4 236.8 44.2 53.6 0.00
6/27/22 - 0600 44.6 70 35.6 40.8 WSW | 246 0.5 3.7 0.00 80.8 237.5 44.2 53.6 0.00
6/27/22 - 0500 45.1 67 34.9 40.7 N | 11 0.4 2.3 0.00 79.3 236.3 45.1 53.6 0.00
6/27/22 - 0400 46.7 64 35.3 41.7 NW | 305 0.5 2.0 0.00 80.1 237.5 46.0 53.6 0.00
6/27/22 - 0300 47.8 60 34.6 42.0 WNW | 292 0.4 1.8 0.00 80.4 237.8 47.8 53.6 0.00
6/27/22 - 0200 49.6 57 34.9 43.0 W | 279 0.6 2.0 0.00 79.6 236.4 49.1 53.6 0.00
6/27/22 - 0100 51.2 57 36.6 44.5 W | 262 0.5 1.8 0.00 79.7 236.0 51.2 53.6 0.00
6/27/22 - 0000 53.3 55 37.4 45.8 W | 262 0.7 2.6 0.00 80.2 235.9 44.7 82.6 0.00
6/26/22 - 2300 56.0 52 38.4 47.4 W | 278 0.9 2.6 0.00 79.6 237.0 44.7 82.6 0.00
6/26/22 - 2200 60.2 47 39.8 49.8 WSW | 256 0.8 2.1 0.00 80.8 238.0 44.7 82.6 0.00
6/26/22 - 2100 64.2 40 39.6 51.2 WSW | 253 1.2 2.8 0.00 83.4 242.7 44.7 82.6 0.00
6/26/22 - 2000 70.8 30 37.9 52.7 NNW | 344 5.8 13.5 0.00 89.0 250.4 44.7 82.6 0.00
6/26/22 - 1900 75.5 25 37.6 54.0 N | 359 9.6 17.5 0.00 92.2 253.3 44.7 82.6 0.00
6/26/22 - 1800 77.8 23 37.3 54.6 N | 360 11.4 19.5 0.00 95.9 257.5 44.7 82.6 0.00
6/26/22 - 1700 78.5 24 39.0 55.4 N | 4 10.7 17.6 0.00 99.7 262.5 44.7 82.6 0.00
6/26/22 - 1600 78.9 22 36.8 54.7 N | 9 11.5 21.7 0.00 - 270.1 44.7 82.6 0.00
Max 79.5 70 43.7 55.4 - 11.5 21.7 0.00 99.7 310.8 51.2 82.6 0.00
Avg 65.2 39 36.5 49.7 - 4.5 9.7 0.00 85.3 260.0 - - -
Min 44.6 17 30.4 40.7 - 0.4 1.8 0.00 78.4 235.9 44.2 53.6 0.00
Total - - - - - - - 0.00 - - - - -